createdAt,value
2023-01-28T00:01:24.793Z,16.40
2023-01-28T00:03:52.318Z,15.98
2023-01-28T00:06:19.438Z,15.30
2023-01-28T00:08:46.178Z,15.63
2023-01-28T00:11:13.765Z,15.98
2023-01-28T00:13:40.875Z,16.77
2023-01-28T00:16:09.002Z,15.07
2023-01-28T00:18:36.736Z,16.35
2023-01-28T00:21:10.499Z,15.48
2023-01-28T00:23:38.558Z,17.00
2023-01-28T00:26:07.977Z,16.58
2023-01-28T00:28:35.515Z,16.83
2023-01-28T00:31:10.848Z,16.95
2023-01-28T00:33:37.963Z,17.35
2023-01-28T00:36:06.520Z,17.10
2023-01-28T00:38:33.544Z,16.48
2023-01-28T00:41:11.492Z,17.77
2023-01-28T00:43:38.771Z,16.17
2023-01-28T00:46:09.655Z,17.05
2023-01-28T00:48:40.040Z,16.98
2023-01-28T00:51:07.948Z,16.48
2023-01-28T00:53:36.390Z,15.82
2023-01-28T00:56:05.672Z,17.10
2023-01-28T00:58:33.082Z,16.13
2023-01-28T01:01:15.143Z,16.00
2023-01-28T01:03:42.089Z,16.80
2023-01-28T01:06:10.010Z,16.30
2023-01-28T01:08:40.005Z,16.23
2023-01-28T01:11:08.026Z,16.58
2023-01-28T01:13:35.318Z,17.15
2023-01-28T01:16:13.751Z,16.05
2023-01-28T01:18:43.630Z,15.68
2023-01-28T01:21:12.848Z,14.75
2023-01-28T01:23:40.236Z,16.40
2023-01-28T01:26:07.725Z,16.40
2023-01-28T01:28:34.463Z,16.65
2023-01-28T01:31:03.216Z,16.90
2023-01-28T01:33:31.120Z,15.55
2023-01-28T01:36:00.576Z,16.17
2023-01-28T01:38:28.074Z,16.63
2023-01-28T01:41:02.386Z,17.00
2023-01-28T01:43:53.453Z,16.38
2023-01-28T01:46:45.508Z,16.50
2023-01-28T01:49:17.974Z,15.57
2023-01-28T01:51:47.315Z,17.20
2023-01-28T01:54:15.502Z,16.05
2023-01-28T01:56:44.682Z,15.75
2023-01-28T01:59:14.077Z,16.97
2023-01-28T02:01:41.879Z,17.10
2023-01-28T02:04:28.840Z,16.63
2023-01-28T02:06:58.314Z,16.25
2023-01-28T02:09:30.324Z,16.60
2023-01-28T02:12:03.850Z,17.05
2023-01-28T02:14:33.941Z,15.68
2023-01-28T02:20:02.416Z,16.13
2023-01-28T02:22:48.331Z,16.23
2023-01-28T02:25:47.630Z,16.35
2023-01-28T02:28:46.376Z,15.60
2023-01-28T02:31:32.146Z,16.17
2023-01-28T02:34:22.692Z,15.82
2023-01-28T02:36:59.635Z,15.63
2023-01-28T02:39:32.629Z,16.55
2023-01-28T02:42:13.629Z,15.25
2023-01-28T02:44:40.319Z,15.63
2023-01-28T02:47:37.135Z,15.13
2023-01-28T02:50:11.653Z,14.25
2023-01-28T02:53:24.287Z,13.88
2023-01-28T02:56:14.837Z,14.75
2023-01-28T02:59:27.933Z,14.40
2023-01-28T03:02:03.640Z,14.38
2023-01-28T03:05:05.908Z,14.15
2023-01-28T03:07:35.879Z,14.15
2023-01-28T03:10:06.217Z,14.68
2023-01-28T03:12:54.033Z,14.52
2023-01-28T03:15:43.999Z,15.00
2023-01-28T03:18:40.694Z,15.52
2023-01-28T03:21:40.430Z,14.18
2023-01-28T03:24:31.417Z,14.68
2023-01-28T03:27:23.978Z,14.73
2023-01-28T03:30:12.503Z,14.32
2023-01-28T03:32:59.534Z,14.00
2023-01-28T03:35:51.618Z,13.75
2023-01-28T03:38:22.880Z,14.23
2023-01-28T03:41:01.220Z,14.02
2023-01-28T03:43:30.608Z,14.15
2023-01-28T03:45:57.773Z,14.25
2023-01-28T03:48:26.661Z,14.55
2023-01-28T03:50:55.485Z,14.82
2023-01-28T03:53:22.282Z,14.15
2023-01-28T03:55:51.398Z,14.90
2023-01-28T03:58:19.447Z,15.02
2023-01-28T04:00:46.360Z,14.57
2023-01-28T04:03:19.173Z,14.40
2023-01-28T04:06:09.826Z,14.23
2023-01-28T04:08:36.617Z,14.13
2023-01-28T04:11:15.618Z,15.10
2023-01-28T04:13:43.076Z,15.77
2023-01-28T04:16:11.442Z,15.35
2023-01-28T04:18:38.605Z,14.43
2023-01-28T04:21:05.723Z,15.80
2023-01-28T04:23:32.473Z,14.68
2023-01-28T04:25:59.187Z,14.65
2023-01-28T04:28:25.984Z,14.75
2023-01-28T04:30:55.464Z,15.20
2023-01-28T04:33:22.660Z,15.32
2023-01-28T04:35:49.344Z,15.00
2023-01-28T04:38:18.416Z,15.23
2023-01-28T04:40:45.137Z,15.48
2023-01-28T04:43:11.835Z,16.10
2023-01-28T04:45:38.557Z,14.95
2023-01-28T04:48:05.392Z,15.98
2023-01-28T04:50:32.097Z,15.05
2023-01-28T04:52:58.825Z,13.68
2023-01-28T04:55:27.676Z,13.82
2023-01-28T04:57:54.370Z,16.00
2023-01-28T05:00:25.667Z,15.20
2023-01-28T05:02:52.416Z,15.40
2023-01-28T05:05:19.232Z,16.15
2023-01-28T05:07:52.372Z,15.52
2023-01-28T05:10:19.639Z,16.63
2023-01-28T05:12:47.763Z,16.15
2023-01-28T05:15:21.089Z,14.50
2023-01-28T05:17:47.978Z,14.48
2023-01-28T05:20:15.215Z,15.73
2023-01-28T05:22:45.125Z,15.05
2023-01-28T05:25:11.944Z,15.48
2023-01-28T05:27:38.704Z,15.48
2023-01-28T05:30:06.795Z,15.15
2023-01-28T05:32:34.066Z,14.35
2023-01-28T05:35:01.041Z,14.88
2023-01-28T05:37:27.748Z,15.45
2023-01-28T05:39:54.492Z,15.63
2023-01-28T05:42:22.587Z,16.05
2023-01-28T05:44:49.295Z,15.90
2023-01-28T05:47:17.411Z,16.75
2023-01-28T05:49:44.339Z,15.75
2023-01-28T05:52:13.137Z,16.35
2023-01-28T05:54:39.897Z,15.23
2023-01-28T05:57:08.686Z,15.50
2023-01-28T05:59:35.580Z,15.15
2023-01-28T06:02:02.397Z,15.88
2023-01-28T06:04:29.146Z,17.10
2023-01-28T06:06:55.976Z,16.63
2023-01-28T06:09:22.765Z,16.83
2023-01-28T06:11:50.387Z,17.05
2023-01-28T06:14:17.383Z,15.68
2023-01-28T06:16:44.203Z,15.52
2023-01-28T06:19:12.812Z,15.18
2023-01-28T06:21:39.561Z,16.35
2023-01-28T06:24:06.386Z,13.75
2023-01-28T06:26:33.166Z,14.45
2023-01-28T06:28:59.867Z,14.55
2023-01-28T06:31:26.581Z,13.85
2023-01-28T06:33:53.305Z,13.55
2023-01-28T06:36:20.024Z,12.23
2023-01-28T06:38:46.888Z,14.32
2023-01-28T06:41:13.744Z,14.32
2023-01-28T06:43:40.430Z,14.57
2023-01-28T06:46:07.250Z,13.82
2023-01-28T06:48:34.124Z,13.65
2023-01-28T06:51:00.878Z,13.60
2023-01-28T06:53:27.661Z,13.20
2023-01-28T06:55:54.447Z,12.85
2023-01-28T06:58:23.916Z,13.57
2023-01-28T07:00:50.669Z,12.57
2023-01-28T07:03:19.798Z,13.00
2023-01-28T07:05:49.166Z,12.65
2023-01-28T07:08:15.970Z,12.65
2023-01-28T07:10:43.905Z,13.45
2023-01-28T07:13:11.052Z,13.18
2023-01-28T07:15:38.001Z,12.63
2023-01-28T07:18:04.812Z,13.35
2023-01-28T07:20:34.203Z,13.05
2023-01-28T07:23:00.929Z,12.77
2023-01-28T07:25:30.340Z,12.93
2023-01-28T07:27:57.078Z,13.75
2023-01-28T07:30:26.405Z,13.13
2023-01-28T07:32:55.141Z,13.77
2023-01-28T07:35:22.277Z,12.90
2023-01-28T07:37:53.624Z,13.38
2023-01-28T07:40:21.060Z,14.18
2023-01-28T07:42:49.658Z,14.50
2023-01-28T07:45:16.855Z,14.77
2023-01-28T07:47:43.670Z,14.82
2023-01-28T07:50:12.431Z,14.13
2023-01-28T07:52:44.409Z,15.05
2023-01-28T07:55:15.463Z,15.63
2023-01-28T07:57:49.566Z,16.20
2023-01-28T08:00:17.261Z,15.68
2023-01-28T08:02:48.216Z,15.13
2023-01-28T08:05:22.624Z,15.90
2023-01-28T08:07:49.787Z,14.45
2023-01-28T08:10:18.259Z,14.57
2023-01-28T08:12:58.914Z,13.80
2023-01-28T08:15:25.716Z,14.65
2023-01-28T08:17:55.714Z,13.23
2023-01-28T08:20:23.407Z,13.90
2023-01-28T08:22:50.179Z,14.15
2023-01-28T08:25:17.215Z,14.25
2023-01-28T08:27:43.971Z,13.82
2023-01-28T08:30:17.488Z,12.77
2023-01-28T08:32:46.701Z,12.15
2023-01-28T08:35:13.519Z,11.82
2023-01-28T08:37:40.192Z,12.60
2023-01-28T08:40:07.572Z,13.35
2023-01-28T08:42:36.715Z,12.93
2023-01-28T08:45:04.166Z,12.70
2023-01-28T08:47:30.876Z,13.93
2023-01-28T08:49:57.564Z,13.02
2023-01-28T08:52:24.317Z,13.40
2023-01-28T08:54:51.018Z,13.35
2023-01-28T08:57:17.710Z,13.93
2023-01-28T08:59:53.505Z,12.48
2023-01-28T09:02:31.199Z,13.50
2023-01-28T09:04:58.731Z,12.75
2023-01-28T09:07:25.468Z,12.85
2023-01-28T09:09:56.341Z,13.13
2023-01-28T09:12:23.363Z,13.77
2023-01-28T09:14:50.087Z,13.15
2023-01-28T09:17:17.952Z,13.43
2023-01-28T09:19:44.653Z,13.35
2023-01-28T09:22:11.399Z,13.48
2023-01-28T09:24:39.091Z,14.18
2023-01-28T09:27:05.861Z,13.80
2023-01-28T09:29:34.579Z,14.00
2023-01-28T09:32:01.565Z,13.57
2023-01-28T09:34:28.398Z,13.88
2023-01-28T09:36:57.434Z,13.18
2023-01-28T09:39:25.714Z,12.23
2023-01-28T09:42:32.397Z,11.88
2023-01-28T09:45:29.466Z,12.13
2023-01-28T09:48:00.169Z,13.07
2023-01-28T09:50:36.467Z,12.63
2023-01-28T09:53:06.725Z,12.82
2023-01-28T09:55:37.751Z,12.88
2023-01-28T09:58:10.297Z,12.30
2023-01-28T10:00:46.081Z,12.68
2023-01-28T10:03:47.867Z,12.75
2023-01-28T10:06:23.769Z,12.55
2023-01-28T10:10:07.096Z,12.52
2023-01-28T10:12:41.583Z,12.48
2023-01-28T10:15:23.419Z,12.38
2023-01-28T10:18:03.889Z,13.70
2023-01-28T10:20:57.935Z,12.80
2023-01-28T10:23:41.499Z,12.45
2023-01-28T10:26:21.884Z,12.75
2023-01-28T10:28:54.964Z,12.45
2023-01-28T10:31:23.764Z,12.45
2023-01-28T10:33:51.518Z,11.60
2023-01-28T10:36:19.173Z,11.02
2023-01-28T10:38:46.948Z,12.80
2023-01-28T10:41:19.756Z,11.30
2023-01-28T10:43:48.565Z,11.55
2023-01-28T10:46:32.160Z,11.13
2023-01-28T10:49:15.337Z,12.40
2023-01-28T10:51:45.712Z,11.82
2023-01-28T10:54:30.114Z,11.32
2023-01-28T10:57:06.401Z,11.18
2023-01-28T10:59:36.676Z,11.73
2023-01-28T11:04:48.445Z,12.77
2023-01-28T11:07:25.124Z,12.10
2023-01-28T11:09:52.491Z,12.23
2023-01-28T11:12:30.573Z,12.13
2023-01-28T11:15:08.213Z,12.60
2023-01-28T11:17:38.148Z,11.88
2023-01-28T11:20:19.542Z,11.60
2023-01-28T11:22:48.076Z,12.05
2023-01-28T11:25:37.596Z,12.00
2023-01-28T11:28:15.071Z,10.85
2023-01-28T11:30:42.256Z,11.00
2023-01-28T11:33:28.867Z,9.88
2023-01-28T11:36:07.207Z,10.02
2023-01-28T11:38:36.547Z,10.98
2023-01-28T11:41:06.935Z,11.60
2023-01-28T11:43:33.681Z,11.00
2023-01-28T11:46:18.834Z,11.38
2023-01-28T11:49:04.630Z,11.60
2023-01-28T11:51:48.425Z,11.75
2023-01-28T11:54:26.242Z,10.77
2023-01-28T11:57:18.065Z,11.68
2023-01-28T12:00:06.067Z,11.15
2023-01-28T12:02:53.641Z,10.77
2023-01-28T12:05:43.656Z,11.48
2023-01-28T12:08:27.866Z,10.98
2023-01-28T12:11:13.169Z,11.32
2023-01-28T12:13:45.664Z,11.20
2023-01-28T12:16:38.661Z,10.35
2023-01-28T12:19:29.392Z,9.80
2023-01-28T12:21:59.102Z,9.77
2023-01-28T12:24:53.616Z,8.65
2023-01-28T12:27:20.563Z,9.32
2023-01-28T12:30:21.815Z,8.35
2023-01-28T12:33:26.100Z,9.02
2023-01-28T12:36:26.267Z,8.77
2023-01-28T12:39:28.235Z,9.00
2023-01-28T12:42:08.853Z,8.70
2023-01-28T12:44:42.873Z,8.60
2023-01-28T12:47:17.606Z,8.75
2023-01-28T12:49:53.972Z,9.55
2023-01-28T12:52:41.584Z,8.63
2023-01-28T12:55:29.633Z,8.35
2023-01-28T12:58:02.324Z,9.10
2023-01-28T13:00:33.626Z,9.00
2023-01-28T13:03:36.512Z,8.15
2023-01-28T13:06:15.103Z,7.72
2023-01-28T13:08:41.973Z,8.30
2023-01-28T13:11:16.031Z,9.10
2023-01-28T13:13:45.074Z,9.65
2023-01-28T13:16:12.927Z,10.35
2023-01-28T13:18:44.176Z,10.35
2023-01-28T13:23:41.688Z,11.32
2023-01-28T13:26:51.372Z,11.30
2023-01-28T13:29:24.208Z,11.13
2023-01-28T13:31:56.604Z,11.82
2023-01-28T13:34:26.277Z,11.63
2023-01-28T13:36:56.588Z,11.63
2023-01-28T13:39:25.680Z,11.35
2023-01-28T13:42:22.878Z,12.25
2023-01-28T13:44:50.242Z,12.13
2023-01-28T13:47:27.374Z,11.52
2023-01-28T13:50:00.212Z,11.52
2023-01-28T13:52:54.793Z,11.43
2023-01-28T13:55:41.550Z,11.15
2023-01-28T13:58:30.644Z,10.88
2023-01-28T14:01:16.697Z,10.73
2023-01-28T14:04:13.903Z,10.95
2023-01-28T14:06:59.573Z,10.90
2023-01-28T14:09:46.934Z,10.63
2023-01-28T14:12:39.142Z,9.93
2023-01-28T14:15:21.205Z,10.63
2023-01-28T14:17:58.671Z,10.48
2023-01-28T14:20:37.742Z,10.02
2023-01-28T14:23:13.931Z,10.57
2023-01-28T14:26:02.866Z,9.70
2023-01-28T14:28:50.313Z,10.45
2023-01-28T14:31:36.295Z,9.48
2023-01-28T14:34:28.644Z,9.88
2023-01-28T14:37:09.195Z,9.88
2023-01-28T14:39:55.814Z,9.95
2023-01-28T14:42:37.303Z,10.05
2023-01-28T14:45:29.339Z,10.85
2023-01-28T14:48:02.732Z,11.30
2023-01-28T14:51:01.024Z,12.43
2023-01-28T14:53:39.676Z,11.93
2023-01-28T14:56:21.570Z,11.73
2023-01-28T14:58:57.328Z,12.07
2023-01-28T15:01:28.770Z,11.95
2023-01-28T15:03:55.553Z,12.02
2023-01-28T15:06:25.380Z,11.90
2023-01-28T15:09:07.668Z,11.80
2023-01-28T15:11:39.540Z,13.07
2023-01-28T15:14:16.350Z,11.32
2023-01-28T15:16:48.307Z,10.90
2023-01-28T15:19:15.842Z,10.10
2023-01-28T15:21:45.498Z,10.30
2023-01-28T15:24:18.672Z,11.18
2023-01-28T15:26:48.051Z,10.95
2023-01-28T15:29:38.847Z,10.60
2023-01-28T15:32:05.782Z,9.60
2023-01-28T15:34:36.556Z,9.88
2023-01-28T15:37:03.263Z,9.45
2023-01-28T15:39:30.224Z,10.20
2023-01-28T15:42:06.520Z,9.57
2023-01-28T15:44:40.843Z,10.20
2023-01-28T15:47:15.133Z,9.98
2023-01-28T15:49:47.023Z,11.02
2023-01-28T15:52:14.088Z,10.65
2023-01-28T15:54:43.101Z,11.05
2023-01-28T15:57:33.695Z,11.52
2023-01-28T16:00:08.590Z,11.55
2023-01-28T16:05:54.922Z,10.88
2023-01-28T16:08:49.422Z,11.50
2023-01-28T16:11:24.185Z,11.43
2023-01-28T16:13:51.189Z,11.75
2023-01-28T16:16:31.618Z,12.57
2023-01-28T16:18:59.382Z,11.35
2023-01-28T16:21:29.990Z,11.88
2023-01-28T16:24:02.792Z,12.00
2023-01-28T16:26:32.444Z,12.30
2023-01-28T16:29:11.073Z,11.63
2023-01-28T16:31:37.847Z,11.05
2023-01-28T16:34:07.135Z,10.65
2023-01-28T16:36:36.332Z,9.13
2023-01-28T16:39:03.178Z,9.95
2023-01-28T16:41:35.240Z,9.60
2023-01-28T16:44:08.149Z,9.65
2023-01-28T16:46:34.949Z,8.88
2023-01-28T16:49:02.587Z,8.68
2023-01-28T16:51:29.780Z,8.93
2023-01-28T16:53:58.134Z,8.70
2023-01-28T16:59:18.387Z,10.25
2023-01-28T17:01:45.652Z,10.32
2023-01-28T17:04:13.281Z,10.25
2023-01-28T17:06:45.495Z,10.23
2023-01-28T17:09:14.148Z,11.10
2023-01-28T17:11:41.115Z,10.20
2023-01-28T17:14:08.560Z,10.52
2023-01-28T17:16:35.762Z,9.23
2023-01-28T17:19:06.717Z,9.52
2023-01-28T17:21:33.626Z,9.73
2023-01-28T17:24:01.552Z,9.82
2023-01-28T17:26:34.028Z,9.40
2023-01-28T17:29:03.380Z,10.10
2023-01-28T17:31:30.177Z,10.93
2023-01-28T17:34:00.054Z,12.00
2023-01-28T17:36:28.162Z,11.73
2023-01-28T17:38:55.600Z,10.90
2023-01-28T17:41:22.518Z,11.77
2023-01-28T17:43:56.525Z,12.95
2023-01-28T17:46:27.885Z,11.98
2023-01-28T17:48:54.654Z,11.77
2023-01-28T17:51:21.993Z,12.70
2023-01-28T17:53:50.292Z,11.95
2023-01-28T17:56:32.909Z,12.15
2023-01-28T17:59:03.435Z,11.60
2023-01-28T18:01:30.864Z,12.00
2023-01-28T18:03:59.917Z,12.00
2023-01-28T18:06:36.656Z,12.60
2023-01-28T18:09:04.915Z,11.68
2023-01-28T18:11:32.901Z,11.85
2023-01-28T18:13:59.642Z,11.38
2023-01-28T18:16:28.615Z,12.20
2023-01-28T18:18:55.310Z,12.20
2023-01-28T18:21:34.789Z,12.73
2023-01-28T18:24:07.042Z,12.82
2023-01-28T18:26:41.529Z,12.95
2023-01-28T18:29:08.257Z,13.60
2023-01-28T18:31:40.188Z,12.88
2023-01-28T18:34:06.903Z,12.25
2023-01-28T18:36:35.693Z,13.25
2023-01-28T18:39:02.383Z,12.35
2023-01-28T18:41:29.150Z,12.50
2023-01-28T18:43:55.830Z,12.20
2023-01-28T18:46:22.635Z,13.88
2023-01-28T18:48:49.393Z,13.82
2023-01-28T18:51:28.862Z,12.65
2023-01-28T18:54:01.968Z,12.70
2023-01-28T18:56:29.691Z,13.13
2023-01-28T18:59:04.089Z,13.43
2023-01-28T19:01:35.741Z,12.93
2023-01-28T19:04:03.070Z,12.20
2023-01-28T19:06:30.760Z,13.60
2023-01-28T19:09:00.362Z,12.98
2023-01-28T19:11:29.685Z,12.55
2023-01-28T19:13:57.088Z,12.83
2023-01-28T19:16:24.573Z,12.00
2023-01-28T19:18:59.769Z,12.73
2023-01-28T19:21:29.175Z,12.05
2023-01-28T19:23:57.972Z,11.25
2023-01-28T19:26:26.568Z,12.25
2023-01-28T19:28:53.552Z,11.68
2023-01-28T19:31:26.443Z,12.15
2023-01-28T19:33:56.056Z,12.10
2023-01-28T19:36:24.075Z,11.63
2023-01-28T19:38:50.910Z,12.30
2023-01-28T19:41:17.831Z,12.32
2023-01-28T19:43:45.795Z,11.48
2023-01-28T19:46:16.070Z,12.32
2023-01-28T19:48:43.765Z,12.40
2023-01-28T19:51:12.729Z,13.02
2023-01-28T19:53:43.986Z,12.82
2023-01-28T19:56:17.585Z,12.80
2023-01-28T19:58:46.142Z,13.32
2023-01-28T20:01:21.750Z,13.77
2023-01-28T20:03:56.406Z,13.43
2023-01-28T20:06:28.057Z,14.43
2023-01-28T20:09:03.923Z,13.75
2023-01-28T20:11:33.204Z,13.90
2023-01-28T20:14:00.019Z,13.27
2023-01-28T20:16:32.264Z,12.75
2023-01-28T20:19:07.541Z,12.52
2023-01-28T20:21:34.987Z,11.85
2023-01-28T20:24:03.001Z,13.02
2023-01-28T20:26:34.365Z,13.10
2023-01-28T20:29:12.986Z,12.15
2023-01-28T20:31:44.063Z,13.27
2023-01-28T20:34:16.132Z,12.98
2023-01-28T20:36:43.714Z,12.82
2023-01-28T20:39:10.928Z,12.95
2023-01-28T20:41:39.968Z,14.07
2023-01-28T20:44:06.775Z,13.88
2023-01-28T20:46:36.407Z,13.20
2023-01-28T20:49:06.158Z,14.30
2023-01-28T20:51:37.537Z,13.75
2023-01-28T20:54:04.716Z,13.75
2023-01-28T20:56:41.335Z,14.32
2023-01-28T20:59:10.730Z,13.20
2023-01-28T21:01:39.726Z,13.98
2023-01-28T21:04:09.052Z,14.90
2023-01-28T21:06:37.852Z,15.45
2023-01-28T21:09:08.429Z,14.68
2023-01-28T21:11:38.241Z,16.17
2023-01-28T21:14:05.120Z,15.30
2023-01-28T21:16:32.131Z,14.93
2023-01-28T21:19:01.460Z,15.35
2023-01-28T21:21:29.397Z,14.77
2023-01-28T21:24:07.925Z,14.40
2023-01-28T21:26:34.765Z,14.82
2023-01-28T21:29:03.690Z,14.48
2023-01-28T21:31:30.764Z,14.15
2023-01-28T21:33:59.132Z,14.82
2023-01-28T21:36:26.701Z,16.48
2023-01-28T21:38:55.379Z,15.80
2023-01-28T21:41:22.618Z,16.27
2023-01-28T21:43:54.923Z,14.90
2023-01-28T21:46:42.624Z,16.13
2023-01-28T21:49:11.015Z,15.63
2023-01-28T21:51:45.944Z,15.07
2023-01-28T21:54:16.623Z,15.07
2023-01-28T21:56:48.680Z,16.25
2023-01-28T21:59:32.359Z,15.80
2023-01-28T22:02:02.653Z,15.02
2023-01-28T22:04:35.476Z,15.90
2023-01-28T22:07:03.738Z,16.02
2023-01-28T22:09:33.325Z,16.23
2023-01-28T22:12:01.140Z,16.77
2023-01-28T22:14:27.936Z,16.15
2023-01-28T22:16:54.819Z,15.70
2023-01-28T22:19:21.992Z,15.88
2023-01-28T22:21:48.825Z,15.95
2023-01-28T22:24:20.598Z,16.98
2023-01-28T22:26:49.513Z,15.75
2023-01-28T22:29:18.011Z,15.65
2023-01-28T22:31:50.495Z,15.60
2023-01-28T22:34:18.615Z,15.93
2023-01-28T22:36:46.230Z,15.98
2023-01-28T22:39:15.550Z,16.08
2023-01-28T22:41:43.555Z,15.23
2023-01-28T22:44:10.617Z,16.45
2023-01-28T22:46:37.798Z,16.13
2023-01-28T22:49:05.792Z,15.75
2023-01-28T22:51:38.162Z,16.10
2023-01-28T22:54:05.007Z,15.30
2023-01-28T22:56:32.023Z,16.52
2023-01-28T22:59:01.617Z,17.88
2023-01-28T23:01:28.994Z,16.77
2023-01-28T23:03:56.548Z,16.23
2023-01-28T23:06:25.954Z,17.13
2023-01-28T23:08:54.345Z,16.23
2023-01-28T23:11:28.671Z,15.73
2023-01-28T23:14:22.186Z,16.77
2023-01-28T23:17:08.106Z,15.38
2023-01-28T23:19:53.552Z,16.67
2023-01-28T23:22:46.580Z,16.73
2023-01-28T23:25:15.956Z,16.00
2023-01-28T23:27:43.774Z,16.20
2023-01-28T23:30:12.168Z,15.13
2023-01-28T23:32:43.647Z,15.88
2023-01-28T23:35:11.521Z,15.23
2023-01-28T23:37:38.639Z,15.82
2023-01-28T23:40:08.314Z,15.73
2023-01-28T23:42:35.209Z,15.48
2023-01-28T23:45:02.195Z,16.00
2023-01-28T23:47:28.993Z,16.02
2023-01-28T23:49:56.014Z,16.13
2023-01-28T23:52:23.543Z,16.02
2023-01-28T23:54:50.333Z,15.05
2023-01-28T23:57:17.165Z,15.70
2023-01-28T23:59:47.578Z,15.95
